sensor_id;sensor_type;location;lat;lon;timestamp;pressure;altitude;pressure_sealevel;temperature;humidity
818;BME280;391;51.052;6.954;2022-12-07T00:01:48;101086.69;;;5.29;100.00
818;BME280;391;51.052;6.954;2022-12-07T00:03:54;101087.66;;;5.31;100.00
818;BME280;391;51.052;6.954;2022-12-07T00:06:01;101080.78;;;5.32;100.00
818;BME280;391;51.052;6.954;2022-12-07T00:08:04;101088.44;;;5.30;100.00
818;BME280;391;51.052;6.954;2022-12-07T00:10:08;101084.50;;;5.37;100.00
818;BME280;391;51.052;6.954;2022-12-07T00:12:11;101076.84;;;5.39;100.00
818;BME280;391;51.052;6.954;2022-12-07T00:14:16;101087.25;;;5.40;99.98
818;BME280;391;51.052;6.954;2022-12-07T00:16:21;101086.47;;;5.41;99.93
818;BME280;391;51.052;6.954;2022-12-07T00:18:25;101076.13;;;5.41;99.93
818;BME280;391;51.052;6.954;2022-12-07T00:20:28;101077.53;;;5.36;100.00
818;BME280;391;51.052;6.954;2022-12-07T00:22:33;101074.97;;;5.36;100.00
818;BME280;391;51.052;6.954;2022-12-07T00:24:37;101071.91;;;5.43;100.00
818;BME280;391;51.052;6.954;2022-12-07T00:26:41;101065.44;;;5.35;100.00
818;BME280;391;51.052;6.954;2022-12-07T00:28:46;101078.88;;;5.44;100.00
818;BME280;391;51.052;6.954;2022-12-07T00:30:50;101068.84;;;5.50;100.00
818;BME280;391;51.052;6.954;2022-12-07T00:32:54;101059.38;;;5.34;99.86
818;BME280;391;51.052;6.954;2022-12-07T00:34:57;101068.03;;;5.35;99.78
818;BME280;391;51.052;6.954;2022-12-07T00:37:00;101078.53;;;5.38;100.00
818;BME280;391;51.052;6.954;2022-12-07T00:39:05;101074.75;;;5.48;99.77
818;BME280;391;51.052;6.954;2022-12-07T00:41:12;101077.50;;;5.51;99.47
818;BME280;391;51.052;6.954;2022-12-07T00:43:16;101068.53;;;5.44;99.78
818;BME280;391;51.052;6.954;2022-12-07T00:45:19;101073.88;;;5.47;99.58
818;BME280;391;51.052;6.954;2022-12-07T00:47:22;101073.31;;;5.53;99.73
818;BME280;391;51.052;6.954;2022-12-07T00:49:26;101063.63;;;5.49;99.08
818;BME280;391;51.052;6.954;2022-12-07T00:51:29;101068.69;;;5.47;99.29
818;BME280;391;51.052;6.954;2022-12-07T00:53:34;101067.91;;;5.48;99.46
818;BME280;391;51.052;6.954;2022-12-07T00:55:44;101067.97;;;5.50;98.77
818;BME280;391;51.052;6.954;2022-12-07T00:57:48;101074.03;;;5.50;98.84
818;BME280;391;51.052;6.954;2022-12-07T00:59:51;101040.88;;;5.43;99.48
818;BME280;391;51.052;6.954;2022-12-07T01:01:57;101067.16;;;5.51;98.70
818;BME280;391;51.052;6.954;2022-12-07T01:04:01;101065.31;;;5.48;98.80
818;BME280;391;51.052;6.954;2022-12-07T01:06:05;101045.84;;;5.39;98.72
818;BME280;391;51.052;6.954;2022-12-07T01:08:08;101054.66;;;5.42;98.53
818;BME280;391;51.052;6.954;2022-12-07T01:10:12;101071.41;;;5.34;99.23
818;BME280;391;51.052;6.954;2022-12-07T01:12:17;101058.75;;;5.39;99.16
818;BME280;391;51.052;6.954;2022-12-07T01:14:20;101059.66;;;5.39;99.58
818;BME280;391;51.052;6.954;2022-12-07T01:16:26;101060.91;;;5.31;99.53
818;BME280;391;51.052;6.954;2022-12-07T01:18:32;101034.31;;;5.17;99.57
818;BME280;391;51.052;6.954;2022-12-07T01:20:37;101070.53;;;5.33;99.99
818;BME280;391;51.052;6.954;2022-12-07T01:22:41;101061.25;;;5.37;99.78
818;BME280;391;51.052;6.954;2022-12-07T01:24:44;101072.66;;;5.41;99.11
818;BME280;391;51.052;6.954;2022-12-07T01:26:48;101066.69;;;5.42;99.15
818;BME280;391;51.052;6.954;2022-12-07T01:28:53;101064.56;;;5.34;99.29
818;BME280;391;51.052;6.954;2022-12-07T01:30:58;101076.13;;;5.41;99.24
818;BME280;391;51.052;6.954;2022-12-07T01:33:02;101066.69;;;5.42;98.95
818;BME280;391;51.052;6.954;2022-12-07T01:35:06;101063.53;;;5.47;99.23
818;BME280;391;51.052;6.954;2022-12-07T01:37:09;101060.50;;;5.40;99.80
818;BME280;391;51.052;6.954;2022-12-07T01:39:12;101072.66;;;5.41;99.78
818;BME280;391;51.052;6.954;2022-12-07T01:41:17;101063.09;;;5.40;99.62
818;BME280;391;51.052;6.954;2022-12-07T01:43:21;101065.19;;;5.30;99.37
818;BME280;391;51.052;6.954;2022-12-07T01:45:38;101062.03;;;5.36;100.00
818;BME280;391;51.052;6.954;2022-12-07T01:47:45;101068.09;;;5.37;99.98
818;BME280;391;51.052;6.954;2022-12-07T01:49:50;101059.66;;;5.39;100.00
818;BME280;391;51.052;6.954;2022-12-07T01:51:58;101058.81;;;5.40;99.58
818;BME280;391;51.052;6.954;2022-12-07T01:54:03;101044.03;;;5.38;100.00
818;BME280;391;51.052;6.954;2022-12-07T01:56:08;101049.03;;;5.34;99.91
818;BME280;391;51.052;6.954;2022-12-07T01:58:13;101058.91;;;5.42;99.58
818;BME280;391;51.052;6.954;2022-12-07T02:00:18;101044.13;;;5.39;99.59
818;BME280;391;51.052;6.954;2022-12-07T02:02:26;101041.56;;;5.39;100.00
818;BME280;391;51.052;6.954;2022-12-07T02:04:31;101049.69;;;5.47;99.57
818;BME280;391;51.052;6.954;2022-12-07T02:06:35;101060.16;;;5.48;99.91
818;BME280;391;51.052;6.954;2022-12-07T02:08:40;101035.97;;;5.31;99.46
818;BME280;391;51.052;6.954;2022-12-07T02:10:44;101047.69;;;5.41;99.94
818;BME280;391;51.052;6.954;2022-12-07T02:12:51;101057.47;;;5.47;99.59
818;BME280;391;51.052;6.954;2022-12-07T02:14:56;101053.03;;;5.44;99.80
818;BME280;391;51.052;6.954;2022-12-07T02:17:08;101050.91;;;5.37;99.23
818;BME280;391;51.052;6.954;2022-12-07T02:19:39;101050.50;;;5.29;100.00
818;BME280;391;51.052;6.954;2022-12-07T02:21:53;101040.69;;;5.24;100.00
818;BME280;391;51.052;6.954;2022-12-07T02:24:31;101040.78;;;5.25;100.00
818;BME280;391;51.052;6.954;2022-12-07T02:29:28;101030.38;;;5.40;100.00
818;BME280;391;51.052;6.954;2022-12-07T02:31:33;101036.72;;;5.45;100.00
818;BME280;391;51.052;6.954;2022-12-07T02:33:41;101045.25;;;5.44;100.00
818;BME280;391;51.052;6.954;2022-12-07T02:35:52;101039.13;;;5.42;99.30
818;BME280;391;51.052;6.954;2022-12-07T02:38:03;101033.78;;;5.39;99.82
818;BME280;391;51.052;6.954;2022-12-07T02:40:14;101026.75;;;5.37;99.37
818;BME280;391;51.052;6.954;2022-12-07T02:42:23;101023.03;;;5.31;99.66
818;BME280;391;51.052;6.954;2022-12-07T02:44:31;101033.69;;;5.38;99.60
818;BME280;391;51.052;6.954;2022-12-07T02:46:38;101037.66;;;5.31;99.67
818;BME280;391;51.052;6.954;2022-12-07T02:48:43;101043.16;;;5.37;99.75
818;BME280;391;51.052;6.954;2022-12-07T02:50:48;101042.34;;;5.38;99.92
818;BME280;391;51.052;6.954;2022-12-07T02:52:52;101033.88;;;5.41;99.78
818;BME280;391;51.052;6.954;2022-12-07T02:54:55;101030.31;;;5.39;99.50
818;BME280;391;51.052;6.954;2022-12-07T02:57:07;101031.28;;;5.41;99.32
818;BME280;391;51.052;6.954;2022-12-07T02:59:17;101032.66;;;5.50;99.95
818;BME280;391;51.052;6.954;2022-12-07T03:01:31;101031.94;;;5.53;99.44
818;BME280;391;51.052;6.954;2022-12-07T03:03:44;101001.00;;;5.38;99.41
818;BME280;391;51.052;6.954;2022-12-07T03:06:00;101037.41;;;5.59;99.15
818;BME280;391;51.052;6.954;2022-12-07T03:08:13;101041.63;;;5.57;99.01
818;BME280;391;51.052;6.954;2022-12-07T03:10:24;101044.13;;;5.55;98.92
818;BME280;391;51.052;6.954;2022-12-07T03:12:32;101042.59;;;5.59;99.20
818;BME280;391;51.052;6.954;2022-12-07T03:14:41;101040.09;;;5.60;99.26
818;BME280;391;51.052;6.954;2022-12-07T03:16:52;101039.84;;;5.72;98.74
818;BME280;391;51.052;6.954;2022-12-07T03:19:00;101020.31;;;5.61;98.39
818;BME280;391;51.052;6.954;2022-12-07T03:21:09;101039.69;;;5.69;98.88
818;BME280;391;51.052;6.954;2022-12-07T03:23:15;101042.28;;;5.69;98.47
818;BME280;391;51.052;6.954;2022-12-07T03:25:21;101044.38;;;5.76;98.36
818;BME280;391;51.052;6.954;2022-12-07T03:27:28;101044.66;;;5.80;98.93
818;BME280;391;51.052;6.954;2022-12-07T03:29:38;101042.84;;;5.79;98.69
818;BME280;391;51.052;6.954;2022-12-07T03:31:49;101046.69;;;5.86;98.22
818;BME280;391;51.052;6.954;2022-12-07T03:33:57;101025.53;;;5.78;98.10
818;BME280;391;51.052;6.954;2022-12-07T03:36:06;101040.72;;;5.87;97.94
818;BME280;391;51.052;6.954;2022-12-07T03:38:15;101036.94;;;5.82;97.73
818;BME280;391;51.052;6.954;2022-12-07T03:40:28;101035.09;;;5.79;97.99
818;BME280;391;51.052;6.954;2022-12-07T03:42:33;101042.59;;;5.75;97.56
818;BME280;391;51.052;6.954;2022-12-07T03:44:40;101032.03;;;5.70;97.79
818;BME280;391;51.052;6.954;2022-12-07T03:46:49;101029.66;;;5.59;97.75
818;BME280;391;51.052;6.954;2022-12-07T03:48:59;101039.53;;;5.50;97.80
818;BME280;391;51.052;6.954;2022-12-07T03:51:11;101040.09;;;5.44;98.03
818;BME280;391;51.052;6.954;2022-12-07T03:53:21;101044.63;;;5.48;97.94
818;BME280;391;51.052;6.954;2022-12-07T03:55:28;101043.72;;;5.48;97.71
818;BME280;391;51.052;6.954;2022-12-07T03:57:34;101049.03;;;5.34;98.88
818;BME280;391;51.052;6.954;2022-12-07T03:59:39;101029.22;;;5.19;98.90
818;BME280;391;51.052;6.954;2022-12-07T04:01:43;101044.34;;;5.27;98.98
818;BME280;391;51.052;6.954;2022-12-07T04:03:48;101043.53;;;5.28;99.21
818;BME280;391;51.052;6.954;2022-12-07T04:05:51;101034.72;;;5.25;99.68
818;BME280;391;51.052;6.954;2022-12-07T04:07:55;101040.53;;;5.21;99.65
818;BME280;391;51.052;6.954;2022-12-07T04:09:59;101029.56;;;5.25;99.31
818;BME280;391;51.052;6.954;2022-12-07T04:12:04;101036.69;;;5.29;99.44
818;BME280;391;51.052;6.954;2022-12-07T04:14:07;101036.13;;;5.34;99.45
818;BME280;391;51.052;6.954;2022-12-07T04:16:23;101029.25;;;5.35;99.33
818;BME280;391;51.052;6.954;2022-12-07T04:18:26;101039.44;;;5.32;99.23
818;BME280;391;51.052;6.954;2022-12-07T04:20:31;101034.16;;;5.30;99.14
818;BME280;391;51.052;6.954;2022-12-07T04:22:34;101037.59;;;5.29;99.31
818;BME280;391;51.052;6.954;2022-12-07T04:24:38;101030.63;;;5.28;98.72
818;BME280;391;51.052;6.954;2022-12-07T04:26:42;101035.84;;;5.30;98.54
818;BME280;391;51.052;6.954;2022-12-07T04:28:46;101037.75;;;5.32;99.30
818;BME280;391;51.052;6.954;2022-12-07T04:30:49;101026.69;;;5.35;98.73
818;BME280;391;51.052;6.954;2022-12-07T04:32:52;101027.56;;;5.36;98.45
818;BME280;391;51.052;6.954;2022-12-07T04:34:57;101040.66;;;5.39;98.41
818;BME280;391;51.052;6.954;2022-12-07T04:37:02;101030.47;;;5.42;98.63
818;BME280;391;51.052;6.954;2022-12-07T04:39:06;101035.81;;;5.45;98.43
818;BME280;391;51.052;6.954;2022-12-07T04:41:10;101033.78;;;5.39;98.55
818;BME280;391;51.052;6.954;2022-12-07T04:43:13;101038.47;;;5.46;98.32
818;BME280;391;51.052;6.954;2022-12-07T04:45:17;101041.53;;;5.55;98.50
818;BME280;391;51.052;6.954;2022-12-07T04:47:20;101016.88;;;5.46;98.12
818;BME280;391;51.052;6.954;2022-12-07T04:49:24;101033.63;;;5.52;98.19
818;BME280;391;51.052;6.954;2022-12-07T04:51:28;101033.47;;;5.49;97.86
818;BME280;391;51.052;6.954;2022-12-07T04:53:33;101029.91;;;5.47;97.64
818;BME280;391;51.052;6.954;2022-12-07T04:55:37;101031.88;;;5.51;97.83
818;BME280;391;51.052;6.954;2022-12-07T04:57:40;101031.03;;;5.52;97.76
818;BME280;391;51.052;6.954;2022-12-07T04:59:43;101030.06;;;5.50;98.19
818;BME280;391;51.052;6.954;2022-12-07T05:01:47;101017.88;;;5.48;98.23
818;BME280;391;51.052;6.954;2022-12-07T05:03:50;101020.13;;;5.42;97.83
818;BME280;391;51.052;6.954;2022-12-07T05:05:54;101024.41;;;5.41;97.72
818;BME280;391;51.052;6.954;2022-12-07T05:07:57;101028.06;;;5.45;98.15
818;BME280;391;51.052;6.954;2022-12-07T05:10:02;101019.72;;;5.34;97.85
818;BME280;391;51.052;6.954;2022-12-07T05:12:06;101021.66;;;5.22;97.95
818;BME280;391;51.052;6.954;2022-12-07T05:14:12;101019.72;;;5.34;98.91
818;BME280;391;51.052;6.954;2022-12-07T05:16:17;101018.97;;;5.37;97.93
818;BME280;391;51.052;6.954;2022-12-07T05:18:20;101020.88;;;5.39;97.76
818;BME280;391;51.052;6.954;2022-12-07T05:20:24;101030.38;;;5.40;98.65
818;BME280;391;51.052;6.954;2022-12-07T05:22:27;101023.34;;;5.38;97.89
818;BME280;391;51.052;6.954;2022-12-07T05:24:31;101027.97;;;5.43;97.66
818;BME280;391;51.052;6.954;2022-12-07T05:26:36;101027.56;;;5.36;98.29
818;BME280;391;51.052;6.954;2022-12-07T05:28:39;101037.25;;;5.40;98.08
818;BME280;391;51.052;6.954;2022-12-07T05:30:43;101032.34;;;5.44;97.82
818;BME280;391;51.052;6.954;2022-12-07T05:32:46;101026.03;;;5.39;97.88
818;BME280;391;51.052;6.954;2022-12-07T05:34:50;101030.16;;;5.36;97.55
818;BME280;391;51.052;6.954;2022-12-07T05:36:53;101026.09;;;5.24;97.73
818;BME280;391;51.052;6.954;2022-12-07T05:38:57;101039.75;;;5.22;98.32
818;BME280;391;51.052;6.954;2022-12-07T05:41:01;101033.38;;;5.31;97.82
818;BME280;391;51.052;6.954;2022-12-07T05:43:07;101016.06;;;5.30;97.73
818;BME280;391;51.052;6.954;2022-12-07T05:45:10;101027.47;;;5.34;97.68
818;BME280;391;51.052;6.954;2022-12-07T05:47:14;101031.91;;;5.37;97.42
818;BME280;391;51.052;6.954;2022-12-07T05:49:18;101008.31;;;5.30;97.65
818;BME280;391;51.052;6.954;2022-12-07T05:51:22;101032.91;;;5.39;97.31
818;BME280;391;51.052;6.954;2022-12-07T05:53:25;101022.22;;;5.32;97.67
818;BME280;391;51.052;6.954;2022-12-07T05:55:29;101031.41;;;5.27;97.50
818;BME280;391;51.052;6.954;2022-12-07T05:57:33;101026.09;;;5.24;97.45
818;BME280;391;51.052;6.954;2022-12-07T05:59:37;101016.47;;;5.22;97.09
818;BME280;391;51.052;6.954;2022-12-07T06:01:40;101023.34;;;5.21;97.19
818;BME280;391;51.052;6.954;2022-12-07T06:03:43;101028.84;;;5.27;96.94
818;BME280;391;51.052;6.954;2022-12-07T06:05:47;101033.53;;;5.34;97.35
818;BME280;391;51.052;6.954;2022-12-07T06:07:50;101030.47;;;5.25;96.85
818;BME280;391;51.052;6.954;2022-12-07T06:09:54;101027.03;;;5.26;96.98
818;BME280;391;51.052;6.954;2022-12-07T06:11:58;101029.88;;;5.31;96.59
818;BME280;391;51.052;6.954;2022-12-07T06:14:19;101016.97;;;5.31;96.89
818;BME280;391;51.052;6.954;2022-12-07T06:16:23;101018.81;;;5.33;96.23
818;BME280;391;51.052;6.954;2022-12-07T06:18:27;101029.88;;;5.31;96.17
818;BME280;391;51.052;6.954;2022-12-07T06:20:30;101016.16;;;5.32;96.36
818;BME280;391;51.052;6.954;2022-12-07T06:22:34;101022.22;;;5.32;96.10
818;BME280;391;51.052;6.954;2022-12-07T06:24:37;101009.78;;;5.25;96.35
818;BME280;391;51.052;6.954;2022-12-07T06:26:42;101032.63;;;5.34;96.13
818;BME280;391;51.052;6.954;2022-12-07T06:28:45;101029.50;;;5.40;95.76
818;BME280;391;51.052;6.954;2022-12-07T06:30:56;101038.25;;;5.42;96.23
818;BME280;391;51.052;6.954;2022-12-07T06:33:01;101036.63;;;5.44;95.85
818;BME280;391;51.052;6.954;2022-12-07T06:35:05;101041.78;;;5.44;95.91
818;BME280;391;51.052;6.954;2022-12-07T06:37:08;101037.06;;;5.37;95.17
818;BME280;391;51.052;6.954;2022-12-07T06:39:12;101047.69;;;5.41;95.50
818;BME280;391;51.052;6.954;2022-12-07T06:41:16;101045.00;;;5.40;95.70
818;BME280;391;51.052;6.954;2022-12-07T06:43:20;101051.16;;;5.42;95.99
818;BME280;391;51.052;6.954;2022-12-07T06:45:23;101039.34;;;5.30;95.99
818;BME280;391;51.052;6.954;2022-12-07T06:47:27;101034.34;;;5.33;96.32
818;BME280;391;51.052;6.954;2022-12-07T06:49:43;101035.81;;;5.45;95.95
818;BME280;391;51.052;6.954;2022-12-07T06:51:46;101032.81;;;5.37;95.72
818;BME280;391;51.052;6.954;2022-12-07T06:53:51;101033.78;;;5.23;96.23
818;BME280;391;51.052;6.954;2022-12-07T06:55:54;101041.91;;;5.30;96.30
818;BME280;391;51.052;6.954;2022-12-07T06:57:58;101038.59;;;5.33;96.39
818;BME280;391;51.052;6.954;2022-12-07T07:00:03;101042.66;;;5.28;96.38
818;BME280;391;51.052;6.954;2022-12-07T07:02:08;101046.75;;;5.24;96.30
818;BME280;391;51.052;6.954;2022-12-07T07:04:11;101037.22;;;5.23;96.36
818;BME280;391;51.052;6.954;2022-12-07T07:06:16;101046.19;;;5.30;96.39
818;BME280;391;51.052;6.954;2022-12-07T07:08:19;101044.59;;;5.32;96.18
818;BME280;391;51.052;6.954;2022-12-07T07:10:24;101050.00;;;5.37;96.41
818;BME280;391;51.052;6.954;2022-12-07T07:12:28;101053.75;;;5.42;96.72
818;BME280;391;51.052;6.954;2022-12-07T07:14:31;101052.69;;;5.38;96.19
818;BME280;391;51.052;6.954;2022-12-07T07:16:34;101053.75;;;5.42;96.27
818;BME280;391;51.052;6.954;2022-12-07T07:18:38;101052.13;;;5.60;97.94
818;BME280;391;51.052;6.954;2022-12-07T07:20:41;101035.13;;;6.99;100.00
818;BME280;391;51.052;6.954;2022-12-07T07:22:46;101045.69;;;7.03;98.39
818;BME280;391;51.052;6.954;2022-12-07T07:24:49;101049.63;;;6.60;94.81
818;BME280;391;51.052;6.954;2022-12-07T07:26:53;101047.41;;;6.33;94.28
818;BME280;391;51.052;6.954;2022-12-07T07:28:56;101043.16;;;6.18;94.09
818;BME280;391;51.052;6.954;2022-12-07T07:31:00;101039.44;;;6.13;94.29
818;BME280;391;51.052;6.954;2022-12-07T07:33:04;101028.72;;;5.89;94.06
818;BME280;391;51.052;6.954;2022-12-07T07:35:08;101048.97;;;5.81;94.42
818;BME280;391;51.052;6.954;2022-12-07T07:37:11;101052.41;;;5.64;94.25
818;BME280;391;51.052;6.954;2022-12-07T07:39:24;101047.28;;;5.50;95.35
818;BME280;391;51.052;6.954;2022-12-07T07:41:27;101028.53;;;5.38;95.32
818;BME280;391;51.052;6.954;2022-12-07T07:43:32;101045.75;;;5.53;96.41
818;BME280;391;51.052;6.954;2022-12-07T07:45:35;101043.72;;;5.48;95.99
818;BME280;391;51.052;6.954;2022-12-07T07:47:39;101043.09;;;5.36;96.19
818;BME280;391;51.052;6.954;2022-12-07T07:49:43;101045.56;;;5.34;96.99
818;BME280;391;51.052;6.954;2022-12-07T07:51:49;101039.34;;;5.30;97.26
818;BME280;391;51.052;6.954;2022-12-07T07:53:53;101056.25;;;5.40;97.13
818;BME280;391;51.052;6.954;2022-12-07T07:55:58;101050.00;;;5.37;96.46
818;BME280;391;51.052;6.954;2022-12-07T07:58:01;101053.59;;;5.39;96.76
818;BME280;391;51.052;6.954;2022-12-07T08:00:06;101052.59;;;5.37;96.47
818;BME280;391;51.052;6.954;2022-12-07T08:02:14;101067.06;;;5.49;96.97
818;BME280;391;51.052;6.954;2022-12-07T08:04:18;101058.44;;;5.49;97.22
818;BME280;391;51.052;6.954;2022-12-07T08:06:21;101062.16;;;5.54;96.80
818;BME280;391;51.052;6.954;2022-12-07T08:08:32;101064.25;;;5.45;96.19
818;BME280;391;51.052;6.954;2022-12-07T08:10:36;101055.03;;;5.50;96.52
818;BME280;391;51.052;6.954;2022-12-07T08:12:42;101023.50;;;5.24;96.36
818;BME280;391;51.052;6.954;2022-12-07T08:15:05;101044.66;;;5.33;96.25
818;BME280;391;51.052;6.954;2022-12-07T08:17:08;101046.00;;;5.42;96.27
818;BME280;391;51.052;6.954;2022-12-07T08:19:11;101069.66;;;5.49;96.36
818;BME280;391;51.052;6.954;2022-12-07T08:21:15;101064.31;;;5.46;96.01
818;BME280;391;51.052;6.954;2022-12-07T08:23:19;101066.91;;;5.46;96.03
818;BME280;391;51.052;6.954;2022-12-07T08:25:31;101070.16;;;5.42;96.10
818;BME280;391;51.052;6.954;2022-12-07T08:27:35;101068.38;;;5.41;96.07
818;BME280;391;51.052;6.954;2022-12-07T08:29:40;101056.81;;;5.34;96.10
818;BME280;391;51.052;6.954;2022-12-07T08:31:43;101068.53;;;5.44;96.39
818;BME280;391;51.052;6.954;2022-12-07T08:33:47;101068.25;;;5.40;96.04
818;BME280;391;51.052;6.954;2022-12-07T08:35:50;101076.19;;;5.43;95.91
818;BME280;391;51.052;6.954;2022-12-07T08:37:54;101084.22;;;5.47;95.81
818;BME280;391;51.052;6.954;2022-12-07T08:39:59;101076.19;;;5.43;96.18
818;BME280;391;51.052;6.954;2022-12-07T08:42:03;101080.31;;;5.55;96.07
818;BME280;391;51.052;6.954;2022-12-07T08:44:07;101077.09;;;5.59;95.89
818;BME280;391;51.052;6.954;2022-12-07T08:46:16;101080.03;;;5.65;95.64
818;BME280;391;51.052;6.954;2022-12-07T08:48:22;101081.72;;;5.65;95.64
818;BME280;391;51.052;6.954;2022-12-07T08:50:27;101082.69;;;5.67;95.05
818;BME280;391;51.052;6.954;2022-12-07T08:52:31;101085.19;;;5.65;94.90
818;BME280;391;51.052;6.954;2022-12-07T08:54:36;101086.41;;;5.72;95.64
818;BME280;391;51.052;6.954;2022-12-07T08:56:42;101082.47;;;5.78;94.96
818;BME280;391;51.052;6.954;2022-12-07T08:58:45;101087.19;;;5.85;94.39
818;BME280;391;51.052;6.954;2022-12-07T09:00:49;101076.38;;;5.78;94.18
818;BME280;391;51.052;6.954;2022-12-07T09:02:54;101086.19;;;5.83;94.50
818;BME280;391;51.052;6.954;2022-12-07T09:04:59;101076.72;;;5.84;94.11
818;BME280;391;51.052;6.954;2022-12-07T09:07:02;101079.22;;;5.82;94.23
818;BME280;391;51.052;6.954;2022-12-07T09:09:06;101073.53;;;5.88;94.18
818;BME280;391;51.052;6.954;2022-12-07T09:11:11;101064.06;;;5.89;94.42
818;BME280;391;51.052;6.954;2022-12-07T09:13:14;101075.78;;;5.98;94.22
818;BME280;391;51.052;6.954;2022-12-07T09:15:18;101072.16;;;5.95;93.89
818;BME280;391;51.052;6.954;2022-12-07T09:17:21;101061.72;;;5.93;93.98
818;BME280;391;51.052;6.954;2022-12-07T09:19:26;101067.06;;;5.96;93.42
818;BME280;391;51.052;6.954;2022-12-07T09:21:30;101050.97;;;5.85;93.65
818;BME280;391;51.052;6.954;2022-12-07T09:23:33;101073.28;;;6.00;93.72
818;BME280;391;51.052;6.954;2022-12-07T09:25:37;101081.13;;;6.01;93.68
818;BME280;391;51.052;6.954;2022-12-07T09:27:41;101070.72;;;6.00;93.64
818;BME280;391;51.052;6.954;2022-12-07T09:29:44;101074.72;;;5.95;93.39
818;BME280;391;51.052;6.954;2022-12-07T09:31:48;101086.06;;;5.97;93.86
818;BME280;391;51.052;6.954;2022-12-07T09:33:54;101070.72;;;6.00;93.72
818;BME280;391;51.052;6.954;2022-12-07T09:35:59;101082.16;;;6.05;93.58
818;BME280;391;51.052;6.954;2022-12-07T09:38:03;101076.53;;;5.96;92.99
818;BME280;391;51.052;6.954;2022-12-07T09:40:07;101072.72;;;5.89;93.54
818;BME280;391;51.052;6.954;2022-12-07T09:42:24;101082.00;;;6.02;94.11
818;BME280;391;51.052;6.954;2022-12-07T09:44:32;101073.03;;;6.11;93.58
818;BME280;391;51.052;6.954;2022-12-07T09:46:38;101072.28;;;6.14;93.22
818;BME280;391;51.052;6.954;2022-12-07T09:48:43;101075.13;;;6.18;93.15
818;BME280;391;51.052;6.954;2022-12-07T09:50:47;101080.63;;;6.08;93.13
818;BME280;391;51.052;6.954;2022-12-07T09:52:54;101079.84;;;6.09;93.21
818;BME280;391;51.052;6.954;2022-12-07T09:54:59;101067.84;;;6.11;93.30
818;BME280;391;51.052;6.954;2022-12-07T09:57:03;101064.06;;;6.05;92.93
818;BME280;391;51.052;6.954;2022-12-07T09:59:12;101066.91;;;6.09;93.22
818;BME280;391;51.052;6.954;2022-12-07T10:01:18;101059.03;;;5.92;93.05
818;BME280;391;51.052;6.954;2022-12-07T10:03:23;101067.59;;;5.91;93.86
818;BME280;391;51.052;6.954;2022-12-07T10:05:28;101007.06;;;5.71;93.57
818;BME280;391;51.052;6.954;2022-12-07T10:07:33;101066.38;;;6.00;93.12
818;BME280;391;51.052;6.954;2022-12-07T10:09:38;101060.56;;;6.04;93.11
818;BME280;391;51.052;6.954;2022-12-07T10:12:04;101057.34;;;6.08;93.20
818;BME280;391;51.052;6.954;2022-12-07T10:14:12;101051.69;;;5.99;92.92
818;BME280;391;51.052;6.954;2022-12-07T10:16:40;101058.56;;;5.99;93.44
818;BME280;391;51.052;6.954;2022-12-07T10:18:44;101056.59;;;6.11;93.83
818;BME280;391;51.052;6.954;2022-12-07T10:20:48;101052.22;;;6.10;92.81
818;BME280;391;51.052;6.954;2022-12-07T10:22:56;101053.13;;;6.10;93.15
818;BME280;391;51.052;6.954;2022-12-07T10:25:08;101045.44;;;6.12;92.78
818;BME280;391;51.052;6.954;2022-12-07T10:27:18;101045.34;;;6.10;92.38
818;BME280;391;51.052;6.954;2022-12-07T10:29:29;101042.91;;;6.13;92.55
818;BME280;391;51.052;6.954;2022-12-07T10:31:38;101046.56;;;6.17;92.23
818;BME280;391;51.052;6.954;2022-12-07T10:33:49;101022.22;;;6.13;91.99
818;BME280;391;51.052;6.954;2022-12-07T10:35:53;101038.78;;;6.17;92.12
818;BME280;391;51.052;6.954;2022-12-07T10:37:58;101036.59;;;6.24;92.07
818;BME280;391;51.052;6.954;2022-12-07T10:40:25;101033.88;;;6.39;92.25
818;BME280;391;51.052;6.954;2022-12-07T10:42:30;101024.06;;;6.50;92.32
818;BME280;391;51.052;6.954;2022-12-07T10:44:34;101021.69;;;6.36;91.29
818;BME280;391;51.052;6.954;2022-12-07T10:46:45;101029.44;;;6.36;91.76
818;BME280;391;51.052;6.954;2022-12-07T10:48:58;101025.16;;;6.37;91.49
818;BME280;391;51.052;6.954;2022-12-07T10:51:12;101029.75;;;6.43;91.38
818;BME280;391;51.052;6.954;2022-12-07T10:53:30;100995.19;;;6.24;91.32
818;BME280;391;51.052;6.954;2022-12-07T10:55:50;101019.00;;;6.35;91.49
818;BME280;391;51.052;6.954;2022-12-07T10:58:15;101016.81;;;6.43;91.28
818;BME280;391;51.052;6.954;2022-12-07T11:00:24;101018.28;;;6.37;90.94
818;BME280;391;51.052;6.954;2022-12-07T11:02:41;101006.94;;;6.35;91.05
818;BME280;391;51.052;6.954;2022-12-07T11:04:55;100982.97;;;6.22;91.17
818;BME280;391;51.052;6.954;2022-12-07T11:07:10;101000.31;;;6.41;91.08
818;BME280;391;51.052;6.954;2022-12-07T11:09:36;100995.78;;;6.36;90.54
818;BME280;391;51.052;6.954;2022-12-07T11:12:10;100992.25;;;6.34;90.70
818;BME280;391;51.052;6.954;2022-12-07T11:14:22;100995.13;;;6.41;90.96
818;BME280;391;51.052;6.954;2022-12-07T11:16:34;100991.28;;;6.50;90.83
818;BME280;391;51.052;6.954;2022-12-07T11:18:51;100987.50;;;6.44;90.65
818;BME280;391;51.052;6.954;2022-12-07T11:21:03;100985.56;;;6.39;90.09
818;BME280;391;51.052;6.954;2022-12-07T11:23:16;100987.22;;;6.37;90.16
818;BME280;391;51.052;6.954;2022-12-07T11:25:26;100989.56;;;6.33;90.21
818;BME280;391;51.052;6.954;2022-12-07T11:27:39;100985.53;;;6.38;90.81
818;BME280;391;51.052;6.954;2022-12-07T11:29:53;100972.47;;;6.36;91.23
818;BME280;391;51.052;6.954;2022-12-07T11:32:07;100976.47;;;6.30;91.05
818;BME280;391;51.052;6.954;2022-12-07T11:34:21;100978.63;;;6.38;91.11
818;BME280;391;51.052;6.954;2022-12-07T11:36:35;100978.19;;;6.47;91.09
818;BME280;391;51.052;6.954;2022-12-07T11:38:43;100971.31;;;6.48;90.37
818;BME280;391;51.052;6.954;2022-12-07T11:40:50;100973.97;;;6.67;90.68
818;BME280;391;51.052;6.954;2022-12-07T11:43:01;100966.47;;;6.90;89.66
818;BME280;391;51.052;6.954;2022-12-07T11:45:13;100969.91;;;7.09;89.62
818;BME280;391;51.052;6.954;2022-12-07T11:47:22;100973.03;;;7.58;89.26
818;BME280;391;51.052;6.954;2022-12-07T11:49:39;100955.13;;;7.44;87.02
818;BME280;391;51.052;6.954;2022-12-07T11:51:45;100963.53;;;7.20;86.01